Latest Weather Observations for Marble Bar

IDW60801

Issued at 9:33 am WST Sunday 4 December 2016 (issued every 30 minutes, with the page automatically refreshed every 10 minutes)

About weather observations | Map of weather stations | Latest weather observations for WA | Other Formats
Station Details ID: 004106 Name: MARBLE BAR Lat: -21.18 Lon: 119.75 Height: 182.3 m
Data from the previous 72 hours. | See also: Recent months at Marble Bar
Date/Time
WST
Temp
°C
App
Temp
°C
Dew
Point
°C
Rel
Hum
%
Delta-T
°C
Wind Press
QNH
hPa
Press
MSL
hPa
Rain since
9am
mm
Dir  Spd
km/h
Gust
km/h
Spd
kts
Gust
kts
04/09:30am 32.8 31.7 15.3 34 11.0 NNW 15 22 8 12 1009.2 1007.6 0.0
04/09:00am 32.1 31.4 16.4 39 10.0 N 15 20 8 11 1009.3 1007.7 0.0
04/08:30am 30.9 31.6 17.9 45 8.4 NNW 11 17 6 9 1009.3 1007.7 0.0
04/08:00am 29.2 30.1 18.3 51 7.0 NNW 11 15 6 8 1009.4 1007.8 0.0
04/07:30am 28.5 30.1 19.2 57 6.1 NNW 9 13 5 7 1009.2 1007.6 0.0
04/07:00am 27.1 28.6 18.9 61 5.3 NNW 9 13 5 7 1009.1 1007.5 0.0
04/06:30am 26.8 28.3 18.9 62 5.1 NNW 9 15 5 8 1009.1 1007.5 0.0
04/06:00am 26.5 27.9 18.6 62 5.1 NNW 9 15 5 8 1008.9 1007.3 0.0
04/05:30am 26.2 27.8 17.8 60 5.3 NNW 6 9 3 5 1008.7 1007.1 0.0
04/05:00am 26.3 28.2 17.6 58 5.5 NW 4 7 2 4 1008.9 1007.3 0.0
04/04:30am 26.1 27.2 16.6 55 5.9 NW 6 7 3 4 1008.6 1007.0 0.0
04/04:00am 26.3 27.4 16.5 54 6.1 NNW 6 7 3 4 1008.4 1006.8 0.0
04/03:30am 26.6 27.5 16.2 52 6.4 NW 6 7 3 4 1008.4 1006.8 0.0
04/03:00am 27.0 27.6 15.7 50 7.0 NNW 7 11 4 6 1008.6 1007.0 0.0
04/02:30am 27.4 27.6 14.8 46 7.7 NW 7 11 4 6 1008.5 1006.9 0.0
04/02:00am 27.5 27.7 14.8 45 7.7 NW 7 11 4 6 1008.2 1006.6 0.0
04/01:30am 27.8 27.6 14.8 45 7.9 WNW 9 19 5 10 1008.2 1006.6 0.0
04/01:00am 28.1 27.8 14.3 42 8.4 NW 9 15 5 8 1008.4 1006.8 0.0
04/12:30am 28.5 27.4 14.3 41 8.6 WNW 13 19 7 10 1008.4 1006.8 0.0
04/12:00am 28.9 28.0 13.6 39 9.2 NW 11 15 6 8 1008.5 1006.9 0.0
 
Date/Time
WST
Temp
°C
App
Temp
°C
Dew
Point
°C
Rel
Hum
%
Delta-T
°C
Wind Press
QNH
hPa
Press
MSL
hPa
Rain since
9am
mm
Dir  Spd
km/h
Gust
km/h
Spd
kts
Gust
kts
03/11:30pm 29.2 28.9 13.4 38 9.5 NW 7 13 4 7 1008.5 1006.9 0.0
03/11:00pm 29.3 28.1 13.9 39 9.3 WNW 13 24 7 13 1008.8 1007.2 0.0
03/10:30pm 29.3 28.9 15.1 42 8.7 NW 11 19 6 10 1009.0 1007.4 0.0
03/10:00pm 29.7 28.5 15.0 40 9.1 WNW 15 28 8 15 1008.8 1007.2 0.0
03/09:30pm 30.3 27.5 14.4 38 9.7 NW 22 35 12 19 1008.7 1007.1 0.0
03/09:00pm 30.8 28.7 14.8 37 9.9 NW 19 28 10 15 1008.3 1006.7 0.0
03/08:30pm 31.4 29.2 14.5 35 10.4 WNW 19 28 10 15 1007.9 1006.3 0.0
03/08:00pm 31.9 29.9 15.0 36 10.5 NW 19 26 10 14 1007.9 1006.3 0.0
03/07:30pm 32.6 30.2 13.8 32 11.5 NW 19 28 10 15 1007.7 1006.1 0.0
03/07:00pm 33.3 30.6 13.4 30 12.1 NW 20 26 11 14 1007.3 1005.7 0.0
03/06:30pm 34.1 30.7 12.4 26 13.1 NNW 22 32 12 17 1007.0 1005.4 0.0
03/06:00pm 35.4 31.8 13.0 26 13.7 NNW 24 37 13 20 1006.5 1004.9 0.0
03/05:30pm 36.5 31.8 12.0 23 14.8 NNW 28 46 15 25 1005.8 1004.3 0.0
03/05:00pm 37.5 32.5 12.2 22 15.4 NNW 30 43 16 23 1005.3 1003.8 0.0
03/04:30pm 38.2 34.1 11.3 20 16.2 NNW 24 43 13 23 1005.1 1003.6 0.0
03/04:00pm 38.7 34.7 11.7 20 16.4 NW 24 41 13 22 1005.0 1003.5 0.0
03/03:30pm 38.9 34.6 11.9 20 16.4 NNW 26 39 14 21 1005.0 1003.5 0.0
03/03:00pm 39.5 35.8 13.8 22 16.1 NNW 26 41 14 22 1004.9 1003.4 0.0
03/02:42pm 40.1 36.2 14.3 22 16.3 NNW 28 46 15 25 1005.0 1003.5 0.0
03/02:30pm 40.3 35.8 11.4 18 17.5 NW 26 43 14 23 1005.2 1003.7 0.0
03/02:00pm 40.8 35.7 5.8 12 19.7 NNW 22 39 12 21 1005.3 1003.8 0.0
03/01:30pm 41.4 36.7 5.0 11 20.3 NW 19 33 10 18 1005.6 1004.1 0.0
03/01:00pm 40.1 35.2 5.3 12 19.4 NNW 20 32 11 17 1005.8 1004.3 0.0
03/12:30pm 39.8 35.4 7.3 14 18.6 WNW 20 30 11 16 1006.3 1004.7 0.0
03/12:00pm 39.7 35.5 8.2 15 18.3 NNW 20 33 11 18 1006.6 1005.0 0.0
03/11:30am 38.6 35.3 11.6 20 16.3 WNW 20 43 11 23 1006.8 1005.2 0.0
03/11:00am 37.8 35.3 12.4 22 15.5 WNW 17 26 9 14 1007.5 1005.9 0.0
03/10:30am 35.9 34.1 13.4 26 13.8 WNW 15 24 8 13 1007.7 1006.1 0.0
03/10:00am 33.6 33.3 16.5 36 10.9 NNW 13 20 7 11 1008.0 1006.4 0.0
03/09:30am 31.7 32.5 19.0 47 8.3 NNW 13 19 7 10 1008.2 1006.6 0.0
03/09:00am 29.4 30.4 19.4 55 6.6 NNW 13 20 7 11 1008.5 1006.9 0.0
03/08:30am 28.8 28.6 19.4 56 6.2 N 19 30 10 16 1008.2 1006.6 0.0
03/08:00am 29.8 29.5 17.3 47 8.0 NNW 15 20 8 11 1008.2 1006.6 0.0
03/07:30am 29.3 30.3 17.8 50 7.4 NW 9 15 5 8 1007.8 1006.2 0.0
03/07:00am 28.4 28.7 18.8 56 6.2 NNW 15 24 8 13 1008.4 1006.8 0.0
03/06:30am 27.4 27.2 18.4 58 5.8 NNW 17 22 9 12 1007.6 1006.0 0.0
03/06:00am 26.4 27.6 19.0 63 4.8 N 11 17 6 9 1007.3 1005.7 0.0
03/05:30am 25.4 27.6 19.5 70 3.8 N 7 7 4 4 1007.2 1005.6 0.0
03/05:00am 25.3 27.4 19.4 70 3.8 NW 7 9 4 5 1006.7 1005.1 0.0
03/04:30am 25.6 27.1 19.7 70 3.8 NNW 11 15 6 8 1006.7 1005.1 0.0
03/04:00am 25.6 27.1 19.7 70 3.8 N 11 15 6 8 1006.8 1005.2 0.0
03/03:30am 26.0 27.4 19.6 68 4.2 N 11 15 6 8 1006.9 1005.3 0.0
03/03:00am 27.3 26.9 16.3 51 6.9 NNW 13 22 7 12 1007.0 1005.4 0.0
03/02:30am 27.7 27.5 15.7 48 7.4 NNW 11 15 6 8 1006.3 1004.7 0.0
03/02:00am 27.6 27.9 14.6 45 7.9 NNW 6 9 3 5 1006.0 1004.5 0.0
03/01:30am 28.1 28.3 14.7 44 8.2 NW 7 9 4 5 1006.1 1004.6 0.0
03/01:00am 28.6 27.9 14.4 41 8.6 NNW 11 15 6 8 1006.5 1004.9 0.0
03/12:30am 29.0 28.4 13.6 38 9.2 NNW 9 13 5 7 1006.6 1005.0 0.0
03/12:00am 29.6 27.5 12.5 35 10.1 NNW 15 22 8 12 1006.7 1005.1 0.0
 
Date/Time
WST
Temp
°C
App
Temp
°C
Dew
Point
°C
Rel
Hum
%
Delta-T
°C
Wind Press
QNH
hPa
Press
MSL
hPa
Rain since
9am
mm
Dir  Spd
km/h
Gust
km/h
Spd
kts
Gust
kts
02/11:30pm 29.9 27.9 12.8 35 10.2 NNW 15 22 8 12 1006.9 1005.3 0.0
02/11:00pm 30.3 29.6 13.1 34 10.3 NW 9 13 5 7 1007.4 1005.8 0.0
02/10:30pm 30.9 29.4 13.2 34 10.6 NW 13 19 7 10 1007.5 1005.9 0.0
02/10:00pm 31.6 29.9 12.4 31 11.5 WNW 13 19 7 10 1007.6 1006.0 0.0
02/09:30pm 32.2 30.1 12.4 30 11.8 WNW 15 22 8 12 1007.1 1005.5 0.0
02/09:00pm 32.6 32.5 13.8 32 11.5 NW 7 17 4 9 1006.9 1005.3 0.0
02/08:30pm 33.4 30.9 12.4 28 12.6 NW 17 30 9 16 1006.5 1004.9 0.0
02/08:00pm 34.3 32.6 12.6 27 13.1 NNW 13 20 7 11 1006.1 1004.6 0.0
02/07:30pm 35.1 32.3 11.5 24 14.1 NNW 17 26 9 14 1005.3 1003.8 0.0
02/07:00pm 35.9 32.6 10.9 22 14.9 NNW 19 30 10 16 1004.9 1003.4 0.0
02/06:30pm 36.8 33.1 11.6 22 15.1 NW 22 33 12 18 1004.4 1002.8 0.0
02/06:00pm 37.9 32.8 11.8 21 15.8 NW 30 43 16 23 1003.6 1002.0 0.0
02/05:30pm 39.3 33.8 10.6 18 17.2 NW 30 46 16 25 1002.8 1001.2 0.0
02/05:01pm 40.5 34.4 9.8 16 18.2 NNW 32 52 17 28 1002.3 1000.7 0.0
02/05:00pm 40.4 34.3 9.7 16 18.3 NNW 32 46 17 25 1002.3 1000.7 0.0
02/04:30pm 41.3 35.1 9.5 15 18.9 NW 32 46 17 25 1002.0 1000.4 0.0
02/04:00pm 42.2 36.3 9.2 14 19.6 NNW 30 50 16 27 1002.1 1000.5 0.0
02/03:49pm 42.6 37.2 9.5 14 19.7 NW 28 46 15 25 1002.3 1000.7 0.0
02/03:30pm 41.5 35.7 9.6 15 19.0 NW 30 44 16 24 1002.4 1000.8 0.0
02/03:00pm 44.5 40.8 4.5 9 22.5 WNW 13 28 7 15 1002.6 1001.0 0.0
02/02:30pm 44.1 39.2 4.2 9 22.2 NW 19 24 10 13 1003.1 1001.5 0.0
02/02:00pm 43.6 40.2 3.8 9 22.1 NW 11 24 6 13 1003.4 1001.8 0.0
02/01:30pm 43.2 38.9 3.5 9 21.8 NNW 15 24 8 13 1003.8 1002.2 0.0
02/01:00pm 42.6 39.8 3.1 9 21.6 SW 7 20 4 11 1004.1 1002.5 0.0
02/12:30pm 43.1 38.8 3.4 9 21.8 NW 15 37 8 20 1004.3 1002.7 0.0
02/12:00pm 43.4 38.8 3.7 9 22.0 WNW 17 26 9 14 1004.7 1003.2 0.0
02/11:30am 42.5 38.2 3.0 9 21.5 WNW 15 30 8 16 1005.0 1003.5 0.0
02/11:00am 42.2 37.8 2.8 9 21.4 WNW 15 24 8 13 1005.4 1003.9 0.0
02/10:30am 41.9 37.7 4.0 10 20.8 W 15 28 8 15 1005.7 1004.2 0.0
02/10:00am 40.9 36.2 3.3 10 20.4 WNW 17 24 9 13 1005.9 1004.4 0.0
02/09:30am 39.3 36.0 4.7 12 19.0 W 11 20 6 11 1006.1 1004.6 0.0
02/09:00am 38.3 35.7 6.1 14 18.0 WNW 9 17 5 9 1006.4 1004.8 0.0
02/08:30am 37.1 34.7 7.1 16 16.9 WSW 9 17 5 9 1006.5 1004.9 0.0
02/08:00am 36.2 33.3 6.4 16 16.6 W 11 17 6 9 1006.1 1004.6 0.0
02/07:30am 34.8 32.8 7.0 18 15.4 WSW 7 15 4 8 1005.9 1004.4 0.0
02/07:00am 34.3 32.5 8.1 20 14.8 NW 7 11 4 6 1005.7 1004.2 0.0
02/06:30am 33.4 32.0 9.4 23 13.8 NNW 7 15 4 8 1005.6 1004.1 0.0
02/06:00am 33.3 30.8 8.0 21 14.2 WNW 11 20 6 11 1005.2 1003.7 0.0
02/05:30am 32.4 29.0 9.2 24 13.2 W 17 26 9 14 1004.8 1003.3 0.0
02/05:00am 32.6 26.4 9.4 24 13.3 W 32 43 17 23 1004.0 1002.4 0.0
02/04:46am 32.5 27.6 9.9 25 13.0 W 26 48 14 26 1003.3 1001.7 0.0
02/04:30am 31.5 28.3 11.8 30 11.6 NW 20 32 11 17 1004.5 1002.9 0.0
02/04:00am 31.7 31.2 12.0 30 11.7 NNE 6 19 3 10 1004.9 1003.4 0.0
02/03:30am 34.2 30.9 9.4 22 14.3 W 17 26 9 14 1003.8 1002.2 0.0
02/03:00am 31.9 28.9 12.7 31 11.5 W 20 32 11 17 1004.0 1002.4 0.0
02/02:30am 31.1 28.9 14.3 36 10.3 N 19 30 10 16 1004.5 1002.9 0.0
02/02:00am 31.8 30.8 13.5 32 11.1 W 11 19 6 10 1004.1 1002.5 0.0
02/01:30am 31.8 30.1 13.5 32 11.1 NNW 15 20 8 11 1004.5 1002.9 0.0
02/01:00am 31.9 29.9 12.7 31 11.5 N 15 20 8 11 1004.6 1003.0 0.0
02/12:30am 32.2 30.2 11.4 28 12.2 N 13 17 7 9 1005.0 1003.5 0.0
02/12:00am 32.7 30.3 10.1 25 13.1 NE 13 17 7 9 1005.4 1003.9 0.0
 
Date/Time
WST
Temp
°C
App
Temp
°C
Dew
Point
°C
Rel
Hum
%
Delta-T
°C
Wind Press
QNH
hPa
Press
MSL
hPa
Rain since
9am
mm
Dir  Spd
km/h
Gust
km/h
Spd
kts
Gust
kts
01/11:30pm 33.0 31.1 9.1 23 13.6 NE 9 15 5 8 1005.5 1004.0 0.0
01/11:00pm 33.1 31.2 9.2 23 13.7 NE 9 15 5 8 1005.7 1004.2 0.0
01/10:30pm 33.3 32.2 10.0 24 13.5 NNE 6 13 3 7 1005.9 1004.4 0.0
01/10:00pm 33.5 32.6 11.4 26 13.1 N 7 13 4 7 1005.9 1004.4 0.0
01/09:30pm 33.7 31.1 12.1 27 12.9 NW 17 22 9 12 1005.7 1004.2 0.0
01/09:00pm 34.1 30.9 11.9 26 13.3 NNW 20 26 11 14 1005.5 1004.0 0.0
01/08:30pm 34.8 31.8 11.9 25 13.7 NNW 19 26 10 14 1005.2 1003.7 0.0
01/08:00pm 35.0 33.3 14.8 29 12.7 N 17 22 9 12 1005.2 1003.7 0.0
01/07:30pm 35.2 33.8 15.5 30 12.4 NNE 17 24 9 13 1004.8 1003.3 0.0
01/07:00pm 35.0 33.2 13.2 27 13.4 NNE 15 20 8 11 1003.9 1002.3 0.0
01/06:30pm 35.2 32.3 12.8 26 13.6 NNW 20 32 11 17 1003.2 1001.6 0.0
01/06:00pm 34.0 28.6 14.0 30 12.4 N 35 48 19 26 1003.0 1001.4 0.0
01/05:52pm 36.6 32.1 11.4 22 15.1 N 26 46 14 25 1002.9 1001.3 0.0
01/05:30pm 39.5 36.0 7.1 14 18.4 N 15 20 8 11 1002.3 1000.7 0.0
01/05:00pm 39.0 34.1 8.6 16 17.7 NNW 24 37 13 20 1002.4 1000.8 0.0
01/04:30pm 39.6 35.6 9.1 16 17.9 NNW 20 30 11 16 1002.4 1000.8 0.0
01/04:00pm 41.1 35.9 10.3 16 18.5 N 28 43 15 23 1002.2 1000.6 0.0
01/03:30pm 42.5 39.9 9.4 14 19.7 NNE 13 24 7 13 1002.4 1000.8 0.0
01/03:00pm 41.7 39.8 6.5 12 20.1 WNW 6 15 3 8 1003.1 1001.5 0.0
01/02:30pm 42.5 38.7 5.9 11 20.7 SSW 15 20 8 11 1003.4 1001.8 0.0
01/02:00pm 42.8 40.6 6.1 11 21.0 W 7 13 4 7 1004.0 1002.4 0.0
01/01:30pm 42.4 40.0 7.0 12 20.4 NNW 9 15 5 8 1004.4 1002.8 0.0
01/01:00pm 42.1 40.0 6.8 12 20.3 N 7 15 4 8 1004.8 1003.3 0.0
01/12:30pm 41.4 39.7 8.5 14 19.3 SE 7 13 4 7 1005.3 1003.8 0.0
01/12:00pm 40.8 39.3 9.1 15 18.7 NW 7 17 4 9 1005.7 1004.2 0.0
01/11:30am 39.1 38.5 10.4 18 17.1 S 4 7 2 4 1006.3 1004.7 0.0
01/11:00am 39.6 38.5 10.8 18 17.3 WSW 7 11 4 6 1006.9 1005.3 0.0
01/10:30am 38.5 37.3 11.5 20 16.3 S 9 20 5 11 1007.4 1005.8 0.0
01/10:00am 36.9 36.7 13.0 24 14.7 SE 6 11 3 6 1007.7 1006.1 0.0

Other Formats:

Comma delimited format used in spreadsheet applications
http://www.bom.gov.au/fwo/IDW60801/IDW60801.95317.axf

JavaScript Object Notation format (JSON) in row-major order
http://www.bom.gov.au/fwo/IDW60801/IDW60801.95317.json